Карточка аэропорта UMKK

Внимание!
Информация на этой странице в стадии наполнения.
Если вы не увидели какой-то информации, или заметили неточность - пожалуйста сообщите нам!
Спасибо!
Команда RU-STAFF
Название аэропортаХраброво
Название аэропорта (англ.)Khrabrovo
Превышение43 ft. (13.1 m.)
Координаты54°53.4', 20°35.55'
Высота перехода4000ft
Эшелон переходаFL50 (QNH>=1013hPa); FL60 (QNH<1013hPa); FL50 (QNH<977hPa);
Коды ответчика6620-6637
Зона ОрВДКалининград РПИ (UMKK)
Данные METARUMKK 270500Z 02005MPS 9000 BKN007 OVC017 01/00 Q1022 R24/290095 NOSIG RMK QBB210 QFE765/1021
Проноз погоды (TAF)UMKK 270155Z 2703/2803 03008G14MPS 0900 -SNRA PRFG OVC003 TEMPO 2703/2707 0300 +SN FZRA FZFG OVC001 BECMG 2707/2709 8000 NSW FEW005 BKN012 BECMG 2713/2715 05003G08MPS FEW010 BKN017 TEMPO 2715/2803 BKN003 BECMG 2800/2802 VRB01MPS
NOTAMshow/hide NOTAM
AWOS   TABLE

Информация о ВПП

ВПП Длина ВПП (м.) Покрытие Курс ВПП Частота ILS
063350Асфальтобетон60110.3
243350Асфальтобетон240109.5

Диспетчерские позиции

Позывной Наименование органа УВД Частота
UMKK_APPКалининград-Подход126.0
UMKK_TWRКалининград-Вышка127.2



Спутниковое изображение